Time;durP1;ratioP1;P1;durP2;ratioP2;P2;SDS_P1;SDS_P2;PMS_P1;PMS_P2;Temp;Humidity;BMP_temperature;BMP_pressure;BME280_temperature;BME280_humidity;BME280_pressure;Samples;Min_cycle;Max_cycle;Signal;HPM_P1;HPM_P2
2021/09/26 00:01:58;;;;;;;6.65;5.35;;;;;;;19.83;61.20;100110.91;10253310;28;20082;-61
2021/09/26 00:07:00;;;;;;;6.35;5.32;;;;;;;19.82;61.13;100125.47;10247967;28;20133;-61
2021/09/26 00:12:02;;;;;;;5.70;5.13;;;;;;;19.84;60.29;100124.22;10241309;28;20047;-61
2021/09/26 00:17:03;;;;;;;5.03;4.47;;;;;;;19.77;59.92;100117.88;10274395;28;20047;-61
2021/09/26 00:22:05;;;;;;;6.45;4.75;;;;;;;19.80;59.76;100139.13;10270157;28;20105;-62
2021/09/26 00:27:09;;;;;;;4.68;4.18;;;;;;;19.39;61.56;100126.88;10252497;28;20526;-61
2021/09/26 00:32:11;;;;;;;4.35;3.92;;;;;;;19.51;60.76;100121.88;10246463;28;20642;-61
2021/09/26 00:37:13;;;;;;;5.07;4.13;;;;;;;19.61;60.95;100124.31;10270389;28;20063;-60
2021/09/26 00:42:15;;;;;;;7.78;4.90;;;;;;;19.56;60.65;100127.56;10252061;28;20155;-61
2021/09/26 00:47:16;;;;;;;5.90;5.20;;;;;;;19.52;60.65;100111.94;10247446;28;20075;-60
2021/09/26 00:52:19;;;;;;;5.93;5.38;;;;;;;19.43;60.58;100109.31;10248661;28;20079;-60
2021/09/26 00:57:21;;;;;;;6.00;4.60;;;;;;;19.36;60.72;100105.66;10276185;28;20080;-60
2021/09/26 01:02:22;;;;;;;5.00;4.60;;;;;;;19.30;61.07;100100.19;10246689;28;20070;-61
2021/09/26 01:07:31;;;;;;;6.00;5.38;;;;;;;19.25;61.25;100103.44;10246216;28;20044;-60
2021/09/26 01:12:51;;;;;;;4.88;4.40;;;;;;;19.18;61.24;100107.88;10246679;28;20114;-60
2021/09/26 01:18:11;;;;;;;5.90;5.40;;;;;;;19.13;61.68;100094.13;10240704;28;20121;-60
2021/09/26 01:23:31;;;;;;;6.53;5.13;;;;;;;19.01;61.91;100086.44;10238650;28;20074;-61
2021/09/26 01:28:44;;;;;;;8.52;7.22;;;;;;;19.00;62.28;100106.34;10242081;28;20066;-60
2021/09/26 01:33:59;;;;;;;8.10;7.25;;;;;;;18.98;62.52;100104.88;10243962;28;20108;-61
2021/09/26 01:39:06;;;;;;;6.50;5.82;;;;;;;18.97;62.70;100104.00;10247792;28;20047;-60
2021/09/26 01:44:11;;;;;;;6.25;5.68;;;;;;;18.88;63.26;100103.25;10253603;28;20122;-61
2021/09/26 01:49:21;;;;;;;6.78;6.13;;;;;;;18.82;63.66;100108.50;10255953;28;20042;-61
2021/09/26 01:54:24;;;;;;;6.95;6.07;;;;;;;18.75;64.22;100112.94;10253273;28;20069;-60
2021/09/26 01:59:27;;;;;;;8.70;6.28;;;;;;;18.75;64.47;100116.50;10247903;28;20485;-61
2021/09/26 02:04:29;;;;;;;7.07;5.88;;;;;;;18.71;64.58;100110.59;10247965;28;20075;-60
2021/09/26 02:09:30;;;;;;;7.10;6.13;;;;;;;18.71;65.15;100107.06;10251910;28;20692;-60
2021/09/26 02:14:32;;;;;;;6.65;6.00;;;;;;;18.65;65.07;100108.63;10252828;28;20087;-62
2021/09/26 02:19:37;;;;;;;8.70;7.68;;;;;;;18.70;65.51;100110.78;10251643;28;20070;-62
2021/09/26 02:24:40;;;;;;;11.68;7.43;;;;;;;18.75;65.42;100110.22;10282239;28;20121;-62
2021/09/26 02:29:41;;;;;;;10.45;7.50;;;;;;;18.72;65.57;100112.28;10246819;28;20051;-61
2021/09/26 02:34:43;;;;;;;8.65;6.97;;;;;;;18.65;66.21;100110.50;10259174;28;20123;-62
2021/09/26 02:39:45;;;;;;;6.53;5.60;;;;;;;18.64;66.59;100123.09;10254003;28;20492;-62
2021/09/26 02:45:32;;;;;;;7.28;6.68;;;;;;;18.64;66.89;100117.72;10256093;28;20528;-61
2021/09/26 02:50:38;;;;;;;9.00;6.65;;;;;;;18.53;66.93;100115.47;10213936;28;20051;-62
2021/09/26 02:55:41;;;;;;;8.43;6.15;;;;;;;18.49;67.39;100111.44;10239686;28;20082;-60
2021/09/26 03:00:45;;;;;;;6.53;5.75;;;;;;;18.45;67.32;100110.09;10241804;28;20125;-63
2021/09/26 03:05:48;;;;;;;7.80;6.25;;;;;;;18.37;68.06;100100.22;10242947;28;20059;-62
2021/09/26 03:10:57;;;;;;;7.82;6.63;;;;;;;18.35;68.36;100104.97;10286907;28;20046;-62
2021/09/26 03:15:58;;;;;;;8.35;6.60;;;;;;;18.26;68.72;100109.56;10253686;28;20118;-60
2021/09/26 03:20:59;;;;;;;9.65;6.90;;;;;;;18.28;69.14;100112.06;10253819;28;20277;-63
2021/09/26 03:26:01;;;;;;;7.53;6.82;;;;;;;18.22;69.59;100108.22;10252585;28;20058;-59
2021/09/26 03:31:03;;;;;;;7.97;7.18;;;;;;;18.24;69.64;100103.53;10253515;28;20051;-60
2021/09/26 03:36:04;;;;;;;7.57;6.57;;;;;;;18.22;69.81;100102.84;10247166;28;21683;-59
2021/09/26 03:41:06;;;;;;;9.15;7.85;;;;;;;18.18;69.95;100113.13;10251056;28;23036;-62
2021/09/26 03:46:07;;;;;;;8.68;7.50;;;;;;;18.16;70.45;100106.25;10270936;28;20097;-60
2021/09/26 03:51:09;;;;;;;8.35;7.55;;;;;;;18.14;70.76;100094.81;10227335;28;20046;-59
2021/09/26 03:56:11;;;;;;;8.13;7.38;;;;;;;18.11;71.10;100093.31;10235307;28;20121;-62
2021/09/26 04:01:12;;;;;;;8.82;7.78;;;;;;;18.06;71.25;100092.16;10243093;28;20571;-61
2021/09/26 04:06:14;;;;;;;9.35;8.35;;;;;;;18.02;71.46;100091.69;10241935;28;20405;-59
2021/09/26 04:11:16;;;;;;;8.13;7.38;;;;;;;18.02;71.27;100089.81;10257344;28;20058;-63
2021/09/26 04:16:17;;;;;;;8.80;7.97;;;;;;;18.00;71.95;100089.16;10241605;28;20074;-60
2021/09/26 04:21:19;;;;;;;9.00;7.90;;;;;;;17.99;72.11;100090.16;10241561;28;20054;-61
2021/09/26 04:26:21;;;;;;;9.40;8.50;;;;;;;17.96;72.32;100093.22;10240030;28;20571;-61
2021/09/26 04:31:23;;;;;;;9.15;8.35;;;;;;;17.94;72.41;100094.38;10239486;28;20122;-60
2021/09/26 04:36:24;;;;;;;10.70;8.45;;;;;;;17.94;72.72;100100.63;10229485;28;20656;-60
2021/09/26 04:41:26;;;;;;;15.70;8.98;;;;;;;17.88;72.78;100100.44;10238503;28;20236;-60
2021/09/26 04:46:27;;;;;;;14.50;8.88;;;;;;;17.83;73.03;100098.28;10233305;28;20051;-60
2021/09/26 04:51:29;;;;;;;18.88;9.80;;;;;;;17.82;73.04;100104.69;10232312;28;20046;-60
2021/09/26 04:56:31;;;;;;;9.43;8.32;;;;;;;17.73;73.44;100108.41;10231765;28;20059;-61
2021/09/26 05:01:32;;;;;;;8.65;7.82;;;;;;;17.69;73.82;100109.78;10243470;28;20046;-60
2021/09/26 05:06:34;;;;;;;9.55;8.27;;;;;;;17.72;74.34;100112.13;10278582;28;20062;-60
2021/09/26 05:11:35;;;;;;;8.30;7.47;;;;;;;17.73;74.12;100119.19;10252484;28;20071;-60
2021/09/26 05:16:37;;;;;;;11.73;7.68;;;;;;;17.57;74.15;100095.88;10237245;28;20134;-60
2021/09/26 05:21:38;;;;;;;8.48;7.68;;;;;;;17.73;74.33;100116.50;10243640;28;20073;-60
2021/09/26 05:26:40;;;;;;;8.40;7.60;;;;;;;17.72;74.47;100120.22;10259418;28;20643;-60
2021/09/26 05:31:41;;;;;;;9.40;8.50;;;;;;;17.72;74.95;100123.72;10254543;28;20142;-60
2021/09/26 05:36:43;;;;;;;9.32;8.43;;;;;;;17.73;74.91;100130.81;10255718;28;20051;-59
2021/09/26 05:41:44;;;;;;;10.15;8.13;;;;;;;17.73;74.93;100113.78;10256497;28;20042;-60
2021/09/26 05:46:46;;;;;;;8.48;7.65;;;;;;;17.79;75.28;100121.19;10255118;28;20769;-62
2021/09/26 05:51:48;;;;;;;8.93;8.00;;;;;;;17.76;75.32;100124.22;10267463;28;20051;-60
2021/09/26 05:56:49;;;;;;;9.43;8.43;;;;;;;17.82;75.20;100128.94;10253933;28;20101;-60
2021/09/26 06:01:51;;;;;;;9.02;8.23;;;;;;;17.80;74.63;100133.63;10238181;28;20101;-60
2021/09/26 06:06:52;;;;;;;10.30;9.13;;;;;;;17.82;74.86;100142.41;10251562;28;20133;-60
2021/09/26 06:11:54;;;;;;;9.68;8.68;;;;;;;17.92;74.49;100140.34;10237334;28;20049;-61
2021/09/26 06:16:55;;;;;;;9.27;8.43;;;;;;;18.02;74.60;100140.97;10222164;28;20291;-60
2021/09/26 06:21:57;;;;;;;10.38;9.38;;;;;;;18.14;74.00;100138.75;10234105;28;20129;-61
2021/09/26 06:26:59;;;;;;;10.65;9.60;;;;;;;18.21;73.87;100128.13;10233197;28;20055;-54
2021/09/26 06:32:01;;;;;;;10.45;8.95;;;;;;;18.41;74.02;100144.66;10232116;28;20113;-56
2021/09/26 06:37:03;;;;;;;10.30;9.30;;;;;;;18.45;73.52;100140.59;10252565;28;20146;-53
2021/09/26 06:42:05;;;;;;;10.10;9.05;;;;;;;18.59;73.35;100147.09;10239104;28;20097;-55
2021/09/26 06:47:06;;;;;;;10.73;9.40;;;;;;;18.67;72.80;100148.88;10230694;28;20050;-53
2021/09/26 06:52:08;;;;;;;12.05;9.07;;;;;;;18.80;72.59;100148.31;10235997;28;20162;-55
2021/09/26 06:57:10;;;;;;;10.10;9.20;;;;;;;18.92;72.41;100135.25;10235066;28;20122;-55
2021/09/26 07:02:13;;;;;;;11.07;8.68;;;;;;;19.07;71.44;100166.66;10237897;28;20653;-55
2021/09/26 07:07:16;;;;;;;9.77;8.95;;;;;;;19.21;71.30;100161.47;10233657;28;20185;-55
2021/09/26 07:12:18;;;;;;;10.25;9.23;;;;;;;19.39;70.81;100170.06;10237174;28;20126;-53
2021/09/26 07:17:20;;;;;;;9.07;8.27;;;;;;;19.51;70.33;100158.84;10272423;28;20047;-55
2021/09/26 07:22:23;;;;;;;9.45;8.52;;;;;;;19.69;70.35;100180.91;10236682;28;20133;-54
2021/09/26 07:27:25;;;;;;;9.48;8.45;;;;;;;19.87;70.02;100174.34;10252915;28;20548;-55
2021/09/26 07:32:27;;;;;;;10.25;9.32;;;;;;;20.01;69.50;100173.50;10237203;28;20142;-53
2021/09/26 07:37:28;;;;;;;9.80;8.80;;;;;;;20.05;69.44;100177.50;10234012;28;20066;-55
2021/09/26 07:42:30;;;;;;;10.38;9.40;;;;;;;20.30;69.08;100178.03;10259958;28;20154;-54
2021/09/26 07:47:32;;;;;;;10.85;9.80;;;;;;;20.58;68.28;100180.03;10235036;28;20292;-54
2021/09/26 07:52:33;;;;;;;11.20;10.20;;;;;;;20.80;67.44;100174.66;10234378;28;20177;-55
2021/09/26 07:57:35;;;;;;;12.45;10.35;;;;;;;21.02;67.01;100176.34;10234553;28;20145;-54
2021/09/26 08:02:36;;;;;;;11.68;10.57;;;;;;;21.26;65.94;100187.78;10236521;28;21477;-55
2021/09/26 08:07:39;;;;;;;12.05;10.60;;;;;;;21.43;65.44;100185.63;10235290;28;20161;-56
2021/09/26 08:12:40;;;;;;;12.05;10.85;;;;;;;21.66;64.84;100176.44;10237395;28;20091;-55
2021/09/26 08:17:43;;;;;;;12.25;10.95;;;;;;;21.85;64.05;100196.59;10237790;28;20122;-55
2021/09/26 08:22:44;;;;;;;11.32;10.07;;;;;;;22.25;63.22;100203.06;10231525;28;20137;-54
2021/09/26 08:27:46;;;;;;;11.00;9.80;;;;;;;22.64;62.51;100205.31;10265182;28;20125;-55
2021/09/26 08:32:48;;;;;;;11.60;10.40;;;;;;;23.07;60.89;100207.69;10246303;28;20134;-57
2021/09/26 08:37:50;;;;;;;11.43;10.25;;;;;;;23.05;60.78;100217.94;10233478;28;20500;-56
2021/09/26 08:42:52;;;;;;;12.48;10.90;;;;;;;22.95;60.75;100223.75;10229981;28;20075;-56
2021/09/26 08:47:53;;;;;;;13.95;12.60;;;;;;;23.20;60.04;100229.47;10247193;28;20058;-62
2021/09/26 08:52:55;;;;;;;15.13;12.75;;;;;;;23.52;59.45;100218.00;10231271;28;20457;-64
2021/09/26 08:57:56;;;;;;;12.57;11.02;;;;;;;23.91;58.52;100217.13;10237692;28;20089;-61
2021/09/26 09:03:00;;;;;;;12.32;11.05;;;;;;;24.22;57.99;100218.31;10235603;28;20051;-63
2021/09/26 09:08:13;;;;;;;11.77;10.57;;;;;;;24.48;55.96;100228.25;10231930;28;20062;-62
2021/09/26 09:13:19;;;;;;;11.57;10.37;;;;;;;24.57;55.64;100228.03;10267962;28;20137;-62
2021/09/26 09:18:22;;;;;;;13.43;11.02;;;;;;;24.48;55.98;100232.88;10249935;28;20410;-63
2021/09/26 09:23:24;;;;;;;11.70;10.43;;;;;;;24.51;55.80;100237.88;10245567;28;20428;-63
2021/09/26 09:28:28;;;;;;;11.15;9.98;;;;;;;24.30;56.34;100241.72;10231811;28;20133;-62
2021/09/26 09:33:44;;;;;;;10.35;9.38;;;;;;;24.50;56.06;100230.75;10223594;28;20721;-64
2021/09/26 09:38:48;;;;;;;9.93;8.93;;;;;;;24.77;55.37;100222.50;10223193;28;20044;-61
2021/09/26 09:43:50;;;;;;;11.40;8.80;;;;;;;25.20;53.93;100219.09;10223422;28;20560;-61
2021/09/26 09:49:10;;;;;;;10.50;8.95;;;;;;;25.26;53.55;100228.25;10245861;28;20106;-61
2021/09/26 09:54:11;;;;;;;8.65;7.82;;;;;;;25.18;53.86;100237.53;10214651;28;20186;-63
2021/09/26 09:59:13;;;;;;;9.85;7.70;;;;;;;25.05;54.91;100243.91;10236904;28;20153;-61
2021/09/26 10:04:16;;;;;;;10.20;8.10;;;;;;;24.77;55.22;100241.56;10258338;28;20049;-62
2021/09/26 10:09:25;;;;;;;7.88;7.18;;;;;;;24.67;55.66;100248.28;10237411;28;20150;-61
2021/09/26 10:14:30;;;;;;;7.05;6.40;;;;;;;24.05;56.17;100250.59;10240632;28;20328;-61
2021/09/26 10:19:35;;;;;;;6.95;6.13;;;;;;;23.29;58.88;100246.41;10234985;28;20057;-61
2021/09/26 10:24:36;;;;;;;7.50;6.70;;;;;;;23.14;59.91;100249.31;10235230;28;20054;-61
2021/09/26 10:29:40;;;;;;;9.30;8.43;;;;;;;23.03;60.60;100247.16;10232502;28;20074;-62
2021/09/26 10:34:42;;;;;;;9.73;7.65;;;;;;;22.93;60.97;100253.81;10254450;28;20768;-63
2021/09/26 10:39:47;;;;;;;7.88;7.18;;;;;;;22.83;61.30;100234.38;10249683;28;20145;-62
2021/09/26 10:44:53;;;;;;;7.65;6.95;;;;;;;22.85;61.18;100245.88;10248639;28;20497;-63
2021/09/26 10:50:15;;;;;;;8.98;7.82;;;;;;;22.78;61.71;100253.16;10248657;28;20371;-61
2021/09/26 10:55:28;;;;;;;9.73;8.63;;;;;;;22.78;61.97;100248.56;10245003;28;20050;-61
2021/09/26 11:00:35;;;;;;;;;;;;;;;22.78;61.62;100251.28;10256340;28;20051;-61
2021/09/26 11:05:41;;;;;;;8.00;7.10;;;;;;;22.66;62.15;100258.31;10250596;28;19928;-62
2021/09/26 11:10:49;;;;;;;8.57;7.50;;;;;;;22.41;63.11;100260.72;10237374;28;20036;-62
2021/09/26 11:15:57;;;;;;;9.38;8.35;;;;;;;22.38;63.53;100278.25;10218651;28;20496;-61
2021/09/26 11:20:59;;;;;;;9.00;8.18;;;;;;;22.27;63.83;100270.63;10222636;28;20055;-62
2021/09/26 11:26:04;;;;;;;11.10;8.27;;;;;;;22.19;64.06;100266.22;10223025;28;20489;-63
2021/09/26 11:31:10;;;;;;;10.40;8.10;;;;;;;22.15;64.52;100250.56;10252397;28;20544;-63
2021/09/26 11:36:19;;;;;;;9.32;8.38;;;;;;;22.30;65.87;100266.69;10222973;28;20129;-62
2021/09/26 11:41:38;;;;;;;10.43;8.98;;;;;;;22.25;66.95;100265.41;10223642;28;20055;-61
2021/09/26 11:46:47;;;;;;;12.60;11.30;;;;;;;22.08;67.11;100258.63;10222351;28;20134;-62
2021/09/26 11:51:48;;;;;;;13.02;11.65;;;;;;;22.06;68.05;100252.56;10248625;28;20117;-63
2021/09/26 11:56:50;;;;;;;13.20;11.98;;;;;;;22.03;67.78;100245.69;10252256;28;20071;-61
2021/09/26 12:01:52;;;;;;;12.75;11.45;;;;;;;21.96;69.28;100268.34;10252636;28;20138;-62
2021/09/26 12:07:02;;;;;;;13.13;11.93;;;;;;;21.87;72.59;100275.78;10268626;28;20133;-63
2021/09/26 12:12:08;;;;;;;13.05;11.27;;;;;;;21.69;72.52;100262.72;10254179;28;20047;-62
2021/09/26 12:17:11;;;;;;;16.42;14.93;;;;;;;21.52;72.43;100273.84;10250905;28;20051;-62
2021/09/26 12:22:14;;;;;;;;;;;;;;;21.42;73.71;100288.72;10250803;28;20816;-63
2021/09/26 12:27:36;;;;;;;14.13;12.82;;;;;;;21.31;75.19;100276.53;10263677;28;20362;-62
2021/09/26 12:32:40;;;;;;;13.95;12.55;;;;;;;21.28;75.21;100263.41;10279787;23;20128;-64
2021/09/26 12:37:49;;;;;;;13.18;11.82;;;;;;;21.32;77.24;100259.28;10335161;28;20107;-62
2021/09/26 12:42:53;;;;;;;10.35;9.35;;;;;;;21.56;75.30;100241.81;10324805;28;20567;-62
2021/09/26 12:47:55;;;;;;;10.40;9.35;;;;;;;22.34;72.86;100243.56;10331085;28;20463;-62
2021/09/26 12:52:58;;;;;;;9.13;8.20;;;;;;;23.18;70.38;100228.84;10330620;28;20068;-63
2021/09/26 12:58:01;;;;;;;8.13;7.32;;;;;;;24.02;67.21;100217.53;10328308;28;20046;-63
2021/09/26 13:03:14;;;;;;;7.68;6.93;;;;;;;25.59;60.46;100211.66;10330417;28;20310;-63
2021/09/26 13:08:33;;;;;;;8.07;6.30;;;;;;;25.30;61.40;100226.81;10337317;28;20046;-63
2021/09/26 13:13:42;;;;;;;6.63;6.03;;;;;;;24.90;61.92;100214.25;10342316;28;20074;-64
2021/09/26 13:18:44;;;;;;;6.78;6.15;;;;;;;24.95;61.85;100214.44;10337753;28;20069;-64
2021/09/26 13:24:15;;;;;;;5.57;5.03;;;;;;;24.62;62.66;100204.59;10347967;28;20097;-63
2021/09/26 13:29:27;;;;;;;5.20;4.45;;;;;;;23.94;64.13;100216.72;10342272;28;20057;-64
2021/09/26 13:34:36;;;;;;;6.97;5.47;;;;;;;22.73;68.46;100220.38;10364947;28;20105;-63
2021/09/26 13:39:48;;;;;;;6.00;5.40;;;;;;;22.48;69.93;100211.94;10350392;28;20133;-63
2021/09/26 13:44:54;;;;;;;6.55;5.95;;;;;;;21.91;72.70;100214.75;10331285;28;20046;-63
2021/09/26 13:49:58;;;;;;;6.68;6.05;;;;;;;21.66;74.25;100219.78;10347697;28;20123;-64
2021/09/26 13:55:00;;;;;;;7.30;6.50;;;;;;;21.75;73.65;100207.75;10345094;28;20127;-62
2021/09/26 14:00:04;;;;;;;7.28;6.68;;;;;;;21.76;73.25;100223.00;10353420;28;20089;-62
2021/09/26 14:05:06;;;;;;;6.47;5.90;;;;;;;21.72;73.38;100219.00;10356879;28;20667;-64
2021/09/26 14:10:09;;;;;;;8.00;7.30;;;;;;;21.72;74.76;100221.69;10340540;28;20061;-63
2021/09/26 14:15:11;;;;;;;8.52;7.68;;;;;;;21.97;72.90;100211.25;10335868;28;20570;-62
2021/09/26 14:20:13;;;;;;;8.38;7.65;;;;;;;21.84;73.20;100212.03;10334898;28;20038;-63
2021/09/26 14:25:15;;;;;;;9.15;8.35;;;;;;;22.19;73.04;100206.56;10349407;28;20561;-62
2021/09/26 14:30:17;;;;;;;11.07;10.02;;;;;;;22.51;71.93;100197.97;10357358;28;20070;-63
2021/09/26 14:35:18;;;;;;;8.35;7.60;;;;;;;22.62;70.84;100196.56;10353747;28;20092;-63
2021/09/26 14:40:20;;;;;;;9.80;8.90;;;;;;;22.37;72.06;100194.41;10347996;28;20678;-62
2021/09/26 14:45:24;;;;;;;11.35;10.23;;;;;;;22.34;73.35;100194.78;10331362;28;20061;-63
2021/09/26 14:50:28;;;;;;;11.45;10.35;;;;;;;22.55;72.51;100197.38;10361296;28;20061;-61
2021/09/26 14:55:29;;;;;;;;;;;;;;;22.46;72.27;100187.75;10373865;28;20125;-61
2021/09/26 15:00:31;;;;;;;12.40;11.23;;;;;;;22.18;73.89;100180.50;10357018;28;20011;-61
2021/09/26 15:05:33;;;;;;;17.02;15.18;;;;;;;22.48;73.74;100185.66;10334369;28;20060;-61
2021/09/26 15:10:35;;;;;;;13.45;12.18;;;;;;;22.66;72.70;100181.53;10364788;28;20092;-61
2021/09/26 15:15:40;;;;;;;11.10;10.10;;;;;;;22.29;73.71;100176.38;10334541;28;20050;-61
2021/09/26 15:20:41;;;;;;;13.02;11.88;;;;;;;22.18;74.74;100183.22;10343482;28;20053;-61
2021/09/26 15:25:43;;;;;;;11.98;10.88;;;;;;;21.91;75.31;100194.97;10355468;28;20069;-61
2021/09/26 15:30:45;;;;;;;11.73;10.73;;;;;;;21.74;76.70;100184.44;10352863;28;20184;-61
2021/09/26 15:35:46;;;;;;;13.20;11.88;;;;;;;21.60;77.50;100190.78;10353734;28;20070;-61
2021/09/26 15:40:49;;;;;;;12.18;10.98;;;;;;;21.54;78.12;100187.00;10353604;28;20057;-61
2021/09/26 15:45:52;;;;;;;11.80;10.73;;;;;;;21.45;77.43;100178.16;10329095;28;20129;-62
2021/09/26 15:50:57;;;;;;;11.52;10.38;;;;;;;21.30;79.53;100174.69;10342597;28;20113;-65
2021/09/26 15:56:00;;;;;;;13.65;11.70;;;;;;;21.37;80.43;100181.00;10344798;28;20057;-62
2021/09/26 16:01:02;;;;;;;10.50;9.50;;;;;;;21.36;79.97;100176.63;10351052;28;20146;-62
2021/09/26 16:06:04;;;;;;;10.85;9.70;;;;;;;21.37;80.56;100189.97;10338192;28;20093;-62
2021/09/26 16:11:07;;;;;;;9.52;8.60;;;;;;;21.35;82.52;100185.78;10350758;28;20073;-62
2021/09/26 16:16:09;;;;;;;9.37;8.57;;;;;;;21.33;81.36;100187.84;10319045;28;20080;-62
2021/09/26 16:21:14;;;;;;;10.57;9.52;;;;;;;21.23;82.69;100195.44;10328807;28;20131;-62
2021/09/26 16:26:16;;;;;;;14.32;13.10;;;;;;;21.17;83.74;100189.78;10347844;28;20045;-61
2021/09/26 16:31:20;;;;;;;12.32;11.20;;;;;;;21.15;83.33;100191.88;10334064;28;20053;-62
2021/09/26 16:36:21;;;;;;;12.57;11.40;;;;;;;21.14;82.17;100192.91;10352652;28;20627;-60
2021/09/26 16:41:24;;;;;;;12.68;11.30;;;;;;;21.04;83.14;100200.50;10337268;28;20463;-62
2021/09/26 16:46:26;;;;;;;12.90;11.60;;;;;;;20.90;83.30;100204.13;10333297;28;20495;-61
2021/09/26 16:51:28;;;;;;;13.38;12.05;;;;;;;20.69;83.55;100192.25;10329530;28;20053;-61
2021/09/26 16:56:32;;;;;;;12.43;11.20;;;;;;;20.68;85.22;100195.97;10336515;28;20072;-60
2021/09/26 17:01:34;;;;;;;13.30;12.05;;;;;;;20.67;83.87;100194.28;10350316;28;20103;-63
2021/09/26 17:06:36;;;;;;;13.25;11.95;;;;;;;20.53;85.17;100201.38;10355261;28;20510;-61
2021/09/26 17:11:37;;;;;;;13.50;12.10;;;;;;;20.55;84.71;100204.75;10347554;28;20120;-60
2021/09/26 17:16:43;;;;;;;14.13;12.82;;;;;;;20.48;85.67;100217.34;10333094;28;20052;-60
2021/09/26 17:21:46;;;;;;;13.32;12.02;;;;;;;20.53;86.85;100230.28;10338163;28;20046;-61
2021/09/26 17:26:47;;;;;;;16.67;14.97;;;;;;;20.46;86.44;100236.47;10341464;28;20104;-63
2021/09/26 17:31:49;;;;;;;12.95;11.75;;;;;;;20.19;85.63;100245.22;10354779;28;20448;-61
2021/09/26 17:36:50;;;;;;;15.38;12.05;;;;;;;19.93;87.00;100244.66;10327574;28;20088;-61
2021/09/26 17:41:52;;;;;;;14.43;13.13;;;;;;;19.88;87.17;100255.19;10338251;28;20136;-61
2021/09/26 17:46:54;;;;;;;14.68;12.60;;;;;;;19.99;87.35;100251.19;10326726;28;20101;-62
2021/09/26 17:51:55;;;;;;;13.57;12.27;;;;;;;20.00;87.32;100258.28;10335537;28;20054;-62
2021/09/26 17:56:58;;;;;;;14.02;12.63;;;;;;;19.99;86.51;100261.16;10339726;28;20074;-61
2021/09/26 18:01:59;;;;;;;15.02;13.52;;;;;;;20.01;86.70;100254.56;10309429;28;20157;-63
2021/09/26 18:07:03;;;;;;;16.92;14.85;;;;;;;19.99;87.31;100262.00;10308694;28;20069;-60
2021/09/26 18:12:05;;;;;;;15.75;14.35;;;;;;;19.99;87.70;100259.28;10311776;28;20070;-61
2021/09/26 18:17:07;;;;;;;17.50;15.82;;;;;;;20.00;87.90;100260.97;10332352;28;20077;-61
2021/09/26 18:22:08;;;;;;;17.10;15.35;;;;;;;20.04;87.44;100267.69;10337681;28;20145;-61
2021/09/26 18:27:10;;;;;;;16.58;14.90;;;;;;;19.99;88.00;100272.81;10347885;28;20069;-61
2021/09/26 18:32:13;;;;;;;16.30;14.70;;;;;;;19.96;89.16;100270.47;10341761;28;20092;-61
2021/09/26 18:37:15;;;;;;;17.77;16.15;;;;;;;19.97;89.52;100272.16;10314157;28;20050;-62
2021/09/26 18:42:16;;;;;;;16.98;15.15;;;;;;;19.98;89.39;100281.09;10319773;28;20042;-61
2021/09/26 18:47:17;;;;;;;17.00;15.50;;;;;;;19.98;89.29;100281.91;10318412;28;20066;-61
2021/09/26 18:52:19;;;;;;;18.70;16.30;;;;;;;19.99;89.54;100283.59;10336399;28;20049;-62
2021/09/26 18:57:21;;;;;;;18.00;16.35;;;;;;;19.93;89.12;100295.16;10316717;28;20137;-62
2021/09/26 19:02:22;;;;;;;19.20;17.23;;;;;;;19.94;89.84;100291.44;10315804;28;20458;-61
2021/09/26 19:07:23;;;;;;;17.63;15.93;;;;;;;19.96;89.65;100290.22;10324228;28;20078;-62
2021/09/26 19:12:25;;;;;;;16.23;14.82;;;;;;;19.95;89.68;100293.97;10316701;28;20264;-62
2021/09/26 19:17:26;;;;;;;17.35;15.75;;;;;;;19.94;89.97;100294.13;10309041;28;20757;-63
2021/09/26 19:22:28;;;;;;;15.57;14.07;;;;;;;19.92;89.74;100288.91;10310247;28;20140;-65
2021/09/26 19:27:29;;;;;;;17.05;15.45;;;;;;;19.92;89.79;100299.72;10315819;28;20074;-61
2021/09/26 19:32:32;;;;;;;16.90;15.10;;;;;;;19.92;90.37;100294.31;10315150;28;20125;-61
2021/09/26 19:37:34;;;;;;;17.80;16.08;;;;;;;19.90;90.62;100292.81;10308241;28;20077;-62
2021/09/26 19:42:36;;;;;;;19.00;16.90;;;;;;;19.86;90.79;100295.06;10306195;28;20069;-61
2021/09/26 19:47:37;;;;;;;17.05;15.55;;;;;;;19.83;91.04;100294.56;10305232;28;20141;-62
2021/09/26 19:52:38;;;;;;;19.95;18.08;;;;;;;19.78;91.24;100303.22;10307353;28;20751;-61
2021/09/26 19:57:40;;;;;;;19.23;17.52;;;;;;;19.75;91.56;100306.25;10311987;28;20042;-62
2021/09/26 20:02:42;;;;;;;19.45;17.65;;;;;;;19.75;91.76;100308.97;10295586;28;20046;-61
2021/09/26 20:07:43;;;;;;;18.98;17.05;;;;;;;19.68;92.32;100297.19;10301465;28;20113;-62
2021/09/26 20:12:45;;;;;;;20.02;18.00;;;;;;;19.61;92.89;100295.22;10305985;28;20054;-62
2021/09/26 20:17:47;;;;;;;20.70;18.80;;;;;;;19.58;93.66;100298.28;10310891;28;20514;-62
2021/09/26 20:22:49;;;;;;;19.58;17.65;;;;;;;19.63;93.64;100295.03;10304814;28;20062;-61
2021/09/26 20:27:51;;;;;;;18.55;16.63;;;;;;;19.67;93.01;100290.97;10299269;28;20507;-62
2021/09/26 20:32:53;;;;;;;18.88;16.98;;;;;;;19.65;93.44;100279.53;10316192;28;20063;-62
2021/09/26 20:37:55;;;;;;;17.58;16.08;;;;;;;19.60;93.10;100277.34;10312901;28;20058;-63
2021/09/26 20:42:58;;;;;;;18.88;17.00;;;;;;;19.63;93.47;100276.16;10311288;28;20124;-61
2021/09/26 20:47:59;;;;;;;17.55;15.90;;;;;;;19.65;92.95;100279.53;10299613;28;20089;-64
2021/09/26 20:53:03;;;;;;;19.42;17.48;;;;;;;19.52;93.66;100273.91;10304208;28;20141;-61
2021/09/26 20:58:04;;;;;;;20.13;18.33;;;;;;;19.41;94.97;100273.31;10303280;28;20081;-63
2021/09/26 21:03:06;;;;;;;17.15;15.45;;;;;;;19.46;94.08;100283.56;10307876;28;20492;-61
2021/09/26 21:08:08;;;;;;;18.05;16.35;;;;;;;19.39;94.81;100278.03;10308180;28;20068;-62
2021/09/26 21:13:10;;;;;;;18.90;17.15;;;;;;;19.32;95.25;100277.09;10306351;28;20058;-61
2021/09/26 21:18:14;;;;;;;19.92;17.92;;;;;;;19.22;95.87;100268.38;10300149;28;20057;-62
2021/09/26 21:23:17;;;;;;;19.98;18.20;;;;;;;19.20;96.07;100290.16;10295701;28;20071;-61
2021/09/26 21:28:20;;;;;;;19.60;17.60;;;;;;;19.23;96.43;100294.34;10297144;28;20236;-61
2021/09/26 21:33:22;;;;;;;19.20;17.50;;;;;;;19.25;95.74;100292.31;10298204;28;20469;-64
2021/09/26 21:38:24;;;;;;;20.08;17.23;;;;;;;19.30;95.80;100295.31;10297279;28;20059;-60
2021/09/26 21:43:26;;;;;;;18.92;17.10;;;;;;;19.26;95.63;100291.31;10299007;28;20130;-60
2021/09/26 21:48:29;;;;;;;18.40;16.67;;;;;;;19.17;96.19;100295.06;10298836;28;20102;-60
2021/09/26 21:53:31;;;;;;;17.80;16.17;;;;;;;19.15;nan;100297.94;10309844;28;20121;-61
2021/09/26 21:58:32;;;;;;;18.60;16.95;;;;;;;19.17;95.64;100295.91;10326579;28;20150;-62
2021/09/26 22:03:38;;;;;;;19.73;17.67;;;;;;;19.19;95.51;100303.81;10332034;28;20246;-62
2021/09/26 22:08:40;;;;;;;19.25;17.52;;;;;;;19.24;94.93;100318.44;10305293;28;20070;-62
2021/09/26 22:13:44;;;;;;;19.55;17.65;;;;;;;19.27;94.47;100321.81;10309674;28;20062;-62
2021/09/26 22:18:46;;;;;;;19.08;17.38;;;;;;;19.17;95.29;100316.63;10308933;28;20478;-61
2021/09/26 22:23:57;;;;;;;20.10;18.20;;;;;;;19.16;95.21;100315.81;10305057;28;20134;-61
2021/09/26 22:29:18;;;;;;;19.58;17.75;;;;;;;19.12;95.27;100305.56;10308426;28;20031;-62
2021/09/26 22:34:20;;;;;;;21.25;19.23;;;;;;;19.14;94.82;100293.56;10313008;28;20038;-61
2021/09/26 22:39:21;;;;;;;21.17;19.27;;;;;;;19.02;95.34;100295.84;10306531;28;20133;-61
2021/09/26 22:44:22;;;;;;;21.65;19.58;;;;;;;18.99;95.66;100309.69;10312258;28;20129;-62
2021/09/26 22:49:24;;;;;;;22.52;20.42;;;;;;;18.91;96.22;100301.63;10299792;28;20149;-62
2021/09/26 22:54:25;;;;;;;22.75;20.35;;;;;;;18.90;95.67;100305.34;10323962;28;20577;-61
2021/09/26 22:59:26;;;;;;;20.33;18.30;;;;;;;18.81;95.50;100300.97;10304702;28;20286;-62